createdAt,value
2024-03-05T00:00:11.977Z,100870.06
2024-03-05T00:02:39.846Z,100873.09
2024-03-05T00:05:08.004Z,100873.28
2024-03-05T00:07:36.655Z,100877.59
2024-03-05T00:10:06.641Z,100877.78
2024-03-05T00:12:34.681Z,100881.78
2024-03-05T00:15:02.144Z,100876.16
2024-03-05T00:17:28.634Z,100875.88
2024-03-05T00:19:55.279Z,100878.63
2024-03-05T00:22:21.896Z,100888.56
2024-03-05T00:24:48.529Z,100882.31
2024-03-05T00:27:15.112Z,100883.50
2024-03-05T00:29:45.078Z,100879.50
2024-03-05T00:32:11.527Z,100887.91
2024-03-05T00:34:38.877Z,100883.56
2024-03-05T00:37:05.479Z,100876.22
2024-03-05T00:39:31.934Z,100892.59
2024-03-05T00:41:58.381Z,100884.81
2024-03-05T00:44:24.919Z,100879.25
2024-03-05T00:46:51.466Z,100878.56
2024-03-05T00:49:18.139Z,100890.81
2024-03-05T00:51:45.362Z,100892.34
2024-03-05T00:54:13.286Z,100893.94
2024-03-05T00:56:39.727Z,100895.50
2024-03-05T00:59:06.132Z,100905.31
2024-03-05T01:01:35.206Z,100904.75
2024-03-05T01:04:02.511Z,100904.94
2024-03-05T01:06:29.026Z,100903.22
2024-03-05T01:08:56.642Z,100903.44
2024-03-05T01:11:23.120Z,100908.81
2024-03-05T01:13:49.689Z,100902.81
2024-03-05T01:16:16.638Z,100911.84
2024-03-05T01:18:43.153Z,100911.19
2024-03-05T01:21:10.475Z,100910.72
2024-03-05T01:23:38.721Z,100904.31
2024-03-05T01:26:05.273Z,100909.56
2024-03-05T01:28:32.227Z,100912.97
2024-03-05T01:31:00.190Z,100907.88
2024-03-05T01:33:27.002Z,100909.41
2024-03-05T01:35:54.743Z,100911.00
2024-03-05T01:38:21.781Z,100898.50
2024-03-05T01:40:48.434Z,100909.06
2024-03-05T01:43:16.291Z,100916.56
2024-03-05T01:45:44.038Z,100918.88
2024-03-05T01:48:12.802Z,100917.75
2024-03-05T01:50:39.626Z,100921.19
2024-03-05T01:53:10.486Z,100920.31
2024-03-05T01:55:39.486Z,100914.66
2024-03-05T01:58:08.984Z,100919.66
2024-03-05T02:00:40.324Z,100918.09
2024-03-05T02:03:07.206Z,100920.41
2024-03-05T02:09:22.990Z,100919.63
2024-03-05T02:11:56.649Z,100920.59
2024-03-05T02:14:29.459Z,100916.28
2024-03-05T02:16:58.136Z,100924.25
2024-03-05T02:19:25.170Z,100922.91
2024-03-05T02:22:17.942Z,100923.31
2024-03-05T02:24:44.460Z,100925.22
2024-03-05T02:27:14.623Z,100923.47
2024-03-05T02:29:46.670Z,100917.53
2024-03-05T02:32:13.217Z,100930.88
2024-03-05T02:34:39.760Z,100925.00
2024-03-05T02:37:07.266Z,100915.84
2024-03-05T02:39:34.369Z,100931.69
2024-03-05T02:42:01.217Z,100928.22
2024-03-05T02:44:27.763Z,100925.94
2024-03-05T02:46:54.351Z,100933.03
2024-03-05T02:49:21.096Z,100935.13
2024-03-05T02:51:48.987Z,100933.91
2024-03-05T02:54:18.533Z,100932.72
2024-03-05T02:56:45.057Z,100939.31
2024-03-05T02:59:11.630Z,100946.25
2024-03-05T03:01:38.234Z,100950.53
2024-03-05T03:04:06.569Z,100942.75
2024-03-05T03:06:33.933Z,100945.25
2024-03-05T03:09:00.413Z,100952.97
2024-03-05T03:11:26.932Z,100955.00
2024-03-05T03:13:54.993Z,100966.81
2024-03-05T03:16:21.509Z,100964.47
2024-03-05T03:18:48.074Z,100962.13
2024-03-05T03:21:14.571Z,100966.81
2024-03-05T03:23:41.036Z,100971.84
2024-03-05T03:26:08.126Z,100976.97
2024-03-05T03:28:34.797Z,100969.25
2024-03-05T03:31:01.553Z,100977.03
2024-03-05T03:33:28.071Z,100989.16
2024-03-05T03:35:56.412Z,100990.72
2024-03-05T03:38:23.001Z,100988.44
2024-03-05T03:40:49.613Z,100993.31
2024-03-05T03:43:16.624Z,100995.22
2024-03-05T03:45:43.685Z,100985.88
2024-03-05T03:48:10.308Z,100991.91
2024-03-05T03:50:39.814Z,100992.41
2024-03-05T03:53:07.162Z,100991.13
2024-03-05T03:55:34.656Z,100997.09
2024-03-05T03:58:01.180Z,100996.16
2024-03-05T04:00:27.650Z,101000.50
2024-03-05T04:02:54.134Z,100993.28
2024-03-05T04:05:20.649Z,100996.16
2024-03-05T04:07:47.644Z,100994.16
2024-03-05T04:10:15.170Z,100990.59
2024-03-05T04:12:41.731Z,100996.81
2024-03-05T04:15:13.421Z,100995.41
2024-03-05T04:17:41.076Z,100995.59
2024-03-05T04:20:10.466Z,101002.06
2024-03-05T04:22:40.865Z,101005.38
2024-03-05T04:25:08.098Z,101004.69
2024-03-05T04:27:36.652Z,101005.94
2024-03-05T04:30:04.859Z,101014.78
2024-03-05T04:32:31.543Z,101018.13
2024-03-05T04:35:07.597Z,101017.06
2024-03-05T04:37:34.217Z,101013.38
2024-03-05T04:40:00.946Z,101025.91
2024-03-05T04:42:27.384Z,101023.41
2024-03-05T04:44:54.984Z,101030.50
2024-03-05T04:47:21.954Z,101036.59
2024-03-05T04:49:49.094Z,101040.59
2024-03-05T04:52:15.785Z,101039.50
2024-03-05T04:54:42.245Z,101043.34
2024-03-05T04:57:09.469Z,101040.81
2024-03-05T04:59:35.924Z,101043.91
2024-03-05T05:02:02.908Z,101049.34
2024-03-05T05:04:29.536Z,101042.16
2024-03-05T05:06:56.746Z,101047.84
2024-03-05T05:09:23.737Z,101047.00
2024-03-05T05:11:50.281Z,101047.84
2024-03-05T05:14:17.844Z,101046.09
2024-03-05T05:16:46.857Z,101045.19
2024-03-05T05:19:15.317Z,101027.59
2024-03-05T05:21:42.294Z,101040.41
2024-03-05T05:24:08.781Z,101036.31
2024-03-05T05:26:35.194Z,101039.47
2024-03-05T05:29:02.047Z,101045.00
2024-03-05T05:31:28.705Z,101052.38
2024-03-05T05:33:58.625Z,101047.84
2024-03-05T05:36:25.401Z,101048.44
2024-03-05T05:38:51.893Z,101055.31
2024-03-05T05:41:21.952Z,101055.06
2024-03-05T05:43:51.265Z,101057.44
2024-03-05T05:46:22.985Z,101057.13
2024-03-05T05:48:51.175Z,101056.91
2024-03-05T05:51:19.331Z,101057.66
2024-03-05T05:53:46.460Z,101066.91
2024-03-05T05:56:14.809Z,101073.13
2024-03-05T05:58:41.288Z,101078.41
2024-03-05T06:01:10.713Z,101079.97
2024-03-05T06:03:38.162Z,101085.31
2024-03-05T06:06:05.187Z,101088.06
2024-03-05T06:08:31.661Z,101086.34
2024-03-05T06:10:58.355Z,101089.00
2024-03-05T06:13:25.513Z,101081.91
2024-03-05T06:15:52.278Z,101085.59
2024-03-05T06:18:18.880Z,101088.00
2024-03-05T06:20:45.399Z,101085.22
2024-03-05T06:23:14.673Z,101087.25
2024-03-05T06:25:42.758Z,101087.91
2024-03-05T06:28:10.958Z,101090.00
2024-03-05T06:30:37.497Z,101089.81
2024-03-05T06:33:09.751Z,101091.97
2024-03-05T06:35:36.956Z,101089.00
2024-03-05T06:38:09.459Z,101095.16
2024-03-05T06:40:39.422Z,101106.19
2024-03-05T06:43:13.745Z,101099.91
2024-03-05T06:45:43.874Z,101102.59
2024-03-05T06:48:17.408Z,101101.00
2024-03-05T06:50:48.403Z,101103.38
2024-03-05T06:53:33.931Z,101110.97
2024-03-05T06:56:19.022Z,101097.81
2024-03-05T06:58:47.214Z,101110.41
2024-03-05T07:01:14.785Z,101107.69
2024-03-05T07:03:43.392Z,101113.16
2024-03-05T07:06:16.357Z,101117.59
2024-03-05T07:08:45.488Z,101112.91
2024-03-05T07:11:13.397Z,101117.00
2024-03-05T07:13:44.770Z,101113.09
2024-03-05T07:16:17.221Z,101118.41
2024-03-05T07:18:45.290Z,101111.78
2024-03-05T07:21:12.236Z,101109.16
2024-03-05T07:23:40.897Z,101113.50
2024-03-05T07:26:07.999Z,101107.94
2024-03-05T07:28:34.954Z,101120.16
2024-03-05T07:31:02.983Z,101108.06
2024-03-05T07:33:29.482Z,101108.28
2024-03-05T07:35:55.985Z,101116.44
2024-03-05T07:38:22.611Z,101107.91
2024-03-05T07:40:49.414Z,101124.53
2024-03-05T07:43:16.471Z,101121.59
2024-03-05T07:45:43.792Z,101113.41
2024-03-05T07:48:14.959Z,101116.47
2024-03-05T07:50:42.334Z,101119.38
2024-03-05T07:53:09.573Z,101126.56
2024-03-05T07:55:45.771Z,101122.88
2024-03-05T07:58:13.726Z,101118.00
2024-03-05T08:00:40.338Z,101119.72
2024-03-05T08:03:06.979Z,101118.47
2024-03-05T08:05:35.772Z,101115.78
2024-03-05T08:08:02.717Z,101112.19
2024-03-05T08:10:29.942Z,101111.81
2024-03-05T08:12:56.926Z,101120.75
2024-03-05T08:15:31.295Z,101110.38
2024-03-05T08:17:58.267Z,101111.50
2024-03-05T08:20:28.120Z,101113.63
2024-03-05T08:22:56.213Z,101116.16
2024-03-05T08:25:24.037Z,101117.56
2024-03-05T08:28:00.178Z,101116.53
2024-03-05T08:30:32.305Z,101122.72
2024-03-05T08:32:59.210Z,101120.66
2024-03-05T08:35:30.468Z,101128.28
2024-03-05T08:37:58.153Z,101133.81
2024-03-05T08:40:25.352Z,101133.44
2024-03-05T08:42:56.648Z,101126.44
2024-03-05T08:45:24.973Z,101121.16
2024-03-05T08:47:53.654Z,101124.94
2024-03-05T08:50:21.564Z,101124.50
2024-03-05T08:52:48.392Z,101122.72
2024-03-05T08:55:16.554Z,101117.78
2024-03-05T08:57:43.767Z,101121.25
2024-03-05T09:00:32.283Z,101117.78
2024-03-05T09:03:09.279Z,101107.09
2024-03-05T09:05:36.967Z,101119.63
2024-03-05T09:08:04.383Z,101124.75
2024-03-05T09:10:31.616Z,101117.88
2024-03-05T09:12:59.530Z,101123.34
2024-03-05T09:15:26.888Z,101127.03
2024-03-05T09:17:53.457Z,101121.34
2024-03-05T09:20:20.088Z,101118.63
2024-03-05T09:22:47.528Z,101119.97
2024-03-05T09:25:15.931Z,101126.44
2024-03-05T09:27:43.979Z,101123.25
2024-03-05T09:30:11.377Z,101124.78
2024-03-05T09:32:37.990Z,101125.97
2024-03-05T09:35:10.069Z,101128.72
2024-03-05T09:37:37.450Z,101124.03
2024-03-05T09:40:10.327Z,101125.34
2024-03-05T09:42:38.135Z,101122.41
2024-03-05T09:45:07.558Z,101119.63
2024-03-05T09:47:38.715Z,101129.63
2024-03-05T09:50:08.116Z,101132.75
2024-03-05T09:52:35.572Z,101130.44
2024-03-05T09:55:03.059Z,101125.31
2024-03-05T09:57:40.913Z,101131.13
2024-03-05T10:00:23.592Z,101134.16
2024-03-05T10:02:53.533Z,101148.53
2024-03-05T10:05:21.282Z,101147.97
2024-03-05T10:07:49.484Z,101148.69
2024-03-05T10:10:20.642Z,101148.63
2024-03-05T10:12:47.239Z,101149.25
2024-03-05T10:15:23.900Z,101154.09
2024-03-05T10:17:53.760Z,101154.75
2024-03-05T10:20:35.012Z,101151.94
2024-03-05T10:23:06.210Z,101146.94
2024-03-05T10:25:35.808Z,101145.88
2024-03-05T10:28:06.399Z,101150.56
2024-03-05T10:30:35.407Z,101152.50
2024-03-05T10:33:10.820Z,101150.25
2024-03-05T10:35:42.728Z,101148.41
2024-03-05T10:38:11.993Z,101136.38
2024-03-05T10:40:40.733Z,101141.44
2024-03-05T10:43:09.749Z,101133.34
2024-03-05T10:45:42.290Z,101131.91
2024-03-05T10:48:11.627Z,101140.56
2024-03-05T10:50:44.874Z,101139.63
2024-03-05T10:53:12.411Z,101137.75
2024-03-05T10:55:39.791Z,101141.03
2024-03-05T10:58:10.236Z,101138.75
2024-03-05T11:00:37.792Z,101146.31
2024-03-05T11:03:11.995Z,101138.06
2024-03-05T11:05:50.873Z,101135.91
2024-03-05T11:08:26.679Z,101144.00
2024-03-05T11:10:58.946Z,101143.38
2024-03-05T11:13:27.342Z,101139.22
2024-03-05T11:15:54.455Z,101141.56
2024-03-05T11:18:29.379Z,101144.50
2024-03-05T11:20:56.213Z,101147.16
2024-03-05T11:23:27.816Z,101144.34
2024-03-05T11:25:58.303Z,101142.50
2024-03-05T11:28:24.930Z,101137.22
2024-03-05T11:31:21.637Z,101149.34
2024-03-05T11:34:04.280Z,101146.34
2024-03-05T11:36:35.048Z,101131.53
2024-03-05T11:39:08.590Z,101135.63
2024-03-05T11:41:39.766Z,101137.97
2024-03-05T11:44:06.612Z,101141.16
2024-03-05T11:46:51.904Z,101149.31
2024-03-05T11:49:20.110Z,101148.88
2024-03-05T11:51:48.443Z,101148.44
2024-03-05T11:54:18.760Z,101163.00
2024-03-05T11:56:47.203Z,101148.66
2024-03-05T11:59:14.877Z,101153.03
2024-03-05T12:01:42.827Z,101152.63
2024-03-05T12:04:12.192Z,101156.75
2024-03-05T12:06:40.838Z,101151.13
2024-03-05T12:09:19.541Z,101152.91
2024-03-05T12:12:03.878Z,101152.16
2024-03-05T12:14:31.834Z,101158.78
2024-03-05T12:17:00.813Z,101144.50
2024-03-05T12:19:28.068Z,101144.91
2024-03-05T12:21:55.609Z,101144.59
2024-03-05T12:24:24.870Z,101151.75
2024-03-05T12:26:54.120Z,101159.63
2024-03-05T12:29:30.925Z,101155.63
2024-03-05T12:31:58.497Z,101151.81
2024-03-05T12:34:26.865Z,101155.91
2024-03-05T12:36:54.339Z,101156.34
2024-03-05T12:39:20.871Z,101153.03
2024-03-05T12:42:07.087Z,101152.44
2024-03-05T12:44:34.925Z,101159.56
2024-03-05T12:47:15.055Z,101148.97
2024-03-05T12:49:47.976Z,101152.44
2024-03-05T12:52:20.441Z,101156.47
2024-03-05T12:54:57.348Z,101148.75
2024-03-05T12:57:31.745Z,101151.63
2024-03-05T13:00:02.681Z,101146.09
2024-03-05T13:02:29.421Z,101133.44
2024-03-05T13:04:59.174Z,101132.28
2024-03-05T13:07:26.704Z,101132.78
2024-03-05T13:09:55.143Z,101133.34
2024-03-05T13:12:21.688Z,101125.06
2024-03-05T13:14:48.187Z,101125.03
2024-03-05T13:17:14.817Z,101134.63
2024-03-05T13:19:41.297Z,101139.97
2024-03-05T13:22:07.882Z,101146.84
2024-03-05T13:24:35.242Z,101142.28
2024-03-05T13:27:01.795Z,101145.22
2024-03-05T13:29:28.253Z,101146.06
2024-03-05T13:31:54.841Z,101158.22
2024-03-05T13:34:23.681Z,101148.69
2024-03-05T13:36:50.543Z,101151.66
2024-03-05T13:39:23.013Z,101154.34
2024-03-05T13:41:53.676Z,101152.81
2024-03-05T13:44:23.595Z,101149.75
2024-03-05T13:46:54.049Z,101155.31
2024-03-05T13:49:21.970Z,101150.88
2024-03-05T13:51:49.324Z,101151.78
2024-03-05T13:54:15.949Z,101154.53
2024-03-05T13:56:44.860Z,101144.50
2024-03-05T13:59:12.360Z,101164.72
2024-03-05T14:01:40.377Z,101154.91
2024-03-05T14:04:10.663Z,101159.22
2024-03-05T14:06:40.039Z,101159.72
2024-03-05T14:09:09.804Z,101161.28
2024-03-05T14:11:36.816Z,101156.63
2024-03-05T14:14:05.369Z,101162.97
2024-03-05T14:16:33.529Z,101166.78
2024-03-05T14:19:00.837Z,101164.84
2024-03-05T14:21:31.421Z,101162.03
2024-03-05T14:23:58.825Z,101171.50
2024-03-05T14:26:25.483Z,101169.34
2024-03-05T14:28:52.272Z,101170.13
2024-03-05T14:31:19.048Z,101171.84
2024-03-05T14:33:45.591Z,101173.72
2024-03-05T14:36:15.031Z,101175.25
2024-03-05T14:38:43.559Z,101175.22
2024-03-05T14:41:11.024Z,101171.16
2024-03-05T14:43:38.007Z,101174.84
2024-03-05T14:46:05.083Z,101173.91
2024-03-05T14:48:31.576Z,101180.22
2024-03-05T14:50:58.036Z,101181.00
2024-03-05T14:53:24.720Z,101184.00
2024-03-05T14:55:51.986Z,101180.25
2024-03-05T14:58:18.673Z,101186.47
2024-03-05T15:00:45.592Z,101180.34
2024-03-05T15:03:12.137Z,101194.13
2024-03-05T15:05:39.361Z,101204.22
2024-03-05T15:08:07.173Z,101202.53
2024-03-05T15:10:35.478Z,101199.69
2024-03-05T15:13:01.988Z,101199.84
2024-03-05T15:15:28.466Z,101206.19
2024-03-05T15:17:55.796Z,101198.06
2024-03-05T15:20:23.017Z,101197.00
2024-03-05T15:22:50.672Z,101203.59
2024-03-05T15:25:24.589Z,101204.38
2024-03-05T15:30:21.026Z,101204.56
2024-03-05T15:32:52.020Z,101206.81
2024-03-05T15:35:23.943Z,101218.97
2024-03-05T15:37:51.929Z,101221.81
2024-03-05T15:40:23.292Z,101222.41
2024-03-05T15:42:51.643Z,101225.88
2024-03-05T15:45:19.382Z,101232.16
2024-03-05T15:47:48.108Z,101222.38
2024-03-05T15:50:19.404Z,101228.63
2024-03-05T15:52:52.926Z,101233.47
2024-03-05T15:55:25.898Z,101236.44
2024-03-05T15:58:09.800Z,101237.19
2024-03-05T16:00:39.572Z,101237.97
2024-03-05T16:03:14.292Z,101239.50
2024-03-05T16:05:55.481Z,101241.44
2024-03-05T16:08:30.893Z,101242.84
2024-03-05T16:10:57.495Z,101243.16
2024-03-05T16:13:24.208Z,101240.75
2024-03-05T16:15:51.178Z,101243.34
2024-03-05T16:18:18.646Z,101251.03
2024-03-05T16:20:46.965Z,101254.69
2024-03-05T16:23:13.646Z,101253.72
2024-03-05T16:25:41.532Z,101255.94
2024-03-05T16:28:14.169Z,101264.34
2024-03-05T16:30:40.896Z,101258.63
2024-03-05T16:33:07.849Z,101262.47
2024-03-05T16:35:36.246Z,101259.41
2024-03-05T16:38:04.895Z,101263.03
2024-03-05T16:40:36.041Z,101272.06
2024-03-05T16:43:04.029Z,101269.53
2024-03-05T16:45:30.574Z,101278.28
2024-03-05T16:48:01.036Z,101282.97
2024-03-05T16:50:29.058Z,101278.19
2024-03-05T16:52:57.895Z,101282.53
2024-03-05T16:55:27.033Z,101287.13
2024-03-05T16:58:00.570Z,101291.63
2024-03-05T17:00:32.149Z,101299.47
2024-03-05T17:03:07.149Z,101296.69
2024-03-05T17:05:37.521Z,101297.56
2024-03-05T17:08:11.336Z,101297.09
2024-03-05T17:10:40.966Z,101301.75
2024-03-05T17:13:08.958Z,101304.34
2024-03-05T17:15:45.608Z,101302.13
2024-03-05T17:18:12.622Z,101298.00
2024-03-05T17:20:39.626Z,101311.59
2024-03-05T17:23:07.147Z,101308.81
2024-03-05T17:25:38.444Z,101309.13
2024-03-05T17:28:09.308Z,101310.22
2024-03-05T17:30:36.067Z,101317.41
2024-03-05T17:33:02.612Z,101321.34
2024-03-05T17:35:29.144Z,101326.88
2024-03-05T17:37:56.389Z,101325.75
2024-03-05T17:40:22.934Z,101329.38
2024-03-05T17:42:50.130Z,101333.81
2024-03-05T17:45:17.422Z,101330.50
2024-03-05T17:47:44.242Z,101332.94
2024-03-05T17:50:23.173Z,101335.41
2024-03-05T17:52:49.803Z,101329.84
2024-03-05T17:55:17.613Z,101339.84
2024-03-05T17:57:48.353Z,101338.75
2024-03-05T18:00:15.959Z,101335.44
2024-03-05T18:02:47.282Z,101339.97
2024-03-05T18:05:14.118Z,101343.47
2024-03-05T18:07:41.339Z,101346.00
2024-03-05T18:10:08.752Z,101354.34
2024-03-05T18:12:35.781Z,101359.78
2024-03-05T18:15:02.800Z,101350.50
2024-03-05T18:17:31.312Z,101346.38
2024-03-05T18:19:58.450Z,101347.31
2024-03-05T18:22:25.529Z,101357.19
2024-03-05T18:24:53.397Z,101353.69
2024-03-05T18:27:19.937Z,101353.69
2024-03-05T18:29:46.697Z,101357.09
2024-03-05T18:32:16.539Z,101367.16
2024-03-05T18:34:44.071Z,101368.25
2024-03-05T18:37:12.721Z,101373.69
2024-03-05T18:39:39.342Z,101372.50
2024-03-05T18:42:06.501Z,101376.88
2024-03-05T18:44:34.549Z,101373.63
2024-03-05T18:47:01.601Z,101376.56
2024-03-05T18:49:29.062Z,101375.59
2024-03-05T18:51:56.579Z,101369.72
2024-03-05T18:54:23.478Z,101381.56
2024-03-05T18:56:50.103Z,101380.63
2024-03-05T18:59:18.391Z,101384.41
2024-03-05T19:01:46.603Z,101385.19
2024-03-05T19:04:13.387Z,101378.38
2024-03-05T19:06:40.620Z,101384.41
2024-03-05T19:09:09.930Z,101389.09
2024-03-05T19:11:37.053Z,101397.22
2024-03-05T19:14:08.700Z,101392.88
2024-03-05T19:16:36.314Z,101397.44
2024-03-05T19:19:04.075Z,101399.25
2024-03-05T19:21:32.009Z,101407.34
2024-03-05T19:23:58.730Z,101407.34
2024-03-05T19:26:27.802Z,101403.00
2024-03-05T19:28:54.276Z,101396.75
2024-03-05T19:31:20.841Z,101402.19
2024-03-05T19:33:47.306Z,101398.66
2024-03-05T19:36:14.901Z,101399.59
2024-03-05T19:38:42.858Z,101397.38
2024-03-05T19:41:11.205Z,101396.50
2024-03-05T19:43:41.481Z,101403.06
2024-03-05T19:46:08.602Z,101392.50
2024-03-05T19:48:35.089Z,101394.22
2024-03-05T19:51:05.312Z,101392.50
2024-03-05T19:53:31.826Z,101396.59
2024-03-05T19:55:58.718Z,101395.69
2024-03-05T19:58:25.149Z,101393.28
2024-03-05T20:00:51.672Z,101395.97
2024-03-05T20:03:18.274Z,101390.88
2024-03-05T20:05:45.339Z,101387.41
2024-03-05T20:08:13.640Z,101397.31
2024-03-05T20:10:40.211Z,101391.75
2024-03-05T20:13:07.821Z,101394.50
2024-03-05T20:15:34.347Z,101403.47
2024-03-05T20:18:00.787Z,101398.19
2024-03-05T20:20:29.773Z,101408.16
2024-03-05T20:22:56.937Z,101408.22
2024-03-05T20:25:24.276Z,101410.03
2024-03-05T20:27:52.318Z,101414.47
2024-03-05T20:30:19.378Z,101421.38
2024-03-05T20:32:46.794Z,101425.06
2024-03-05T20:35:17.530Z,101431.47
2024-03-05T20:37:44.952Z,101432.63
2024-03-05T20:40:12.988Z,101435.78
2024-03-05T20:42:41.663Z,101428.94
2024-03-05T20:45:08.658Z,101429.41
2024-03-05T20:47:35.232Z,101436.34
2024-03-05T20:50:01.763Z,101428.94
2024-03-05T20:52:29.539Z,101437.13
2024-03-05T20:54:56.496Z,101436.50
2024-03-05T20:57:23.575Z,101442.25
2024-03-05T20:59:50.806Z,101444.88
2024-03-05T21:02:17.596Z,101438.25
2024-03-05T21:04:44.154Z,101442.09
2024-03-05T21:07:10.681Z,101444.22
2024-03-05T21:09:39.503Z,101450.16
2024-03-05T21:12:06.199Z,101444.63
2024-03-05T21:14:32.623Z,101445.66
2024-03-05T21:16:59.190Z,101440.44
2024-03-05T21:19:29.411Z,101448.00
2024-03-05T21:21:57.154Z,101445.41
2024-03-05T21:24:24.321Z,101449.16
2024-03-05T21:29:20.553Z,101459.50
2024-03-05T21:31:48.040Z,101461.53
2024-03-05T21:34:14.623Z,101466.88
2024-03-05T21:36:42.601Z,101464.13
2024-03-05T21:39:09.090Z,101469.75
2024-03-05T21:41:35.604Z,101468.38
2024-03-05T21:44:02.109Z,101465.28
2024-03-05T21:46:28.687Z,101471.28
2024-03-05T21:48:55.325Z,101471.75
2024-03-05T21:51:21.812Z,101470.25
2024-03-05T21:53:49.072Z,101482.06
2024-03-05T21:56:16.455Z,101482.16
2024-03-05T21:58:44.045Z,101485.91
2024-03-05T22:01:11.028Z,101488.06
2024-03-05T22:03:37.463Z,101481.78
2024-03-05T22:06:12.587Z,101484.56
2024-03-05T22:08:45.393Z,101483.59
2024-03-05T22:11:12.371Z,101482.03
2024-03-05T22:13:38.866Z,101482.38
2024-03-05T22:16:05.418Z,101483.81
2024-03-05T22:18:31.897Z,101481.09
2024-03-05T22:20:58.515Z,101485.56
2024-03-05T22:23:24.965Z,101491.13
2024-03-05T22:25:51.457Z,101497.44
2024-03-05T22:28:18.058Z,101496.63
2024-03-05T22:30:45.084Z,101496.69
2024-03-05T22:33:12.057Z,101501.84
2024-03-05T22:35:39.018Z,101507.19
2024-03-05T22:38:05.941Z,101503.72
2024-03-05T22:40:33.015Z,101506.59
2024-03-05T22:42:59.538Z,101508.97
2024-03-05T22:45:27.439Z,101505.38
2024-03-05T22:47:53.946Z,101507.47
2024-03-05T22:50:22.497Z,101505.72
2024-03-05T22:52:50.154Z,101511.81
2024-03-05T22:55:16.686Z,101504.84
2024-03-05T22:57:43.154Z,101509.44
2024-03-05T23:00:25.018Z,101513.03
2024-03-05T23:02:52.710Z,101518.16
2024-03-05T23:05:20.565Z,101515.34
2024-03-05T23:07:47.681Z,101518.09
2024-03-05T23:10:18.108Z,101519.25
2024-03-05T23:12:45.650Z,101527.34
2024-03-05T23:15:16.371Z,101522.88
2024-03-05T23:17:43.995Z,101517.28
2024-03-05T23:20:14.315Z,101526.28
2024-03-05T23:22:41.002Z,101530.72
2024-03-05T23:25:08.204Z,101526.25
2024-03-05T23:27:34.862Z,101534.22
2024-03-05T23:30:01.823Z,101536.88
2024-03-05T23:32:28.344Z,101526.28
2024-03-05T23:34:57.045Z,101529.31
2024-03-05T23:37:24.444Z,101539.28
2024-03-05T23:39:50.938Z,101534.78
2024-03-05T23:42:18.264Z,101538.28
2024-03-05T23:44:44.762Z,101536.66
2024-03-05T23:47:11.296Z,101538.19
2024-03-05T23:49:37.858Z,101541.88
2024-03-05T23:52:04.565Z,101538.53
2024-03-05T23:54:34.934Z,101540.00
2024-03-05T23:57:02.095Z,101547.22
2024-03-05T23:59:28.650Z,101549.75
